Time;durP1;ratioP1;P1;durP2;ratioP2;P2;SDS_P1;SDS_P2;PMS_P1;PMS_P2;Temp;Humidity;BMP_temperature;BMP_pressure;BME280_temperature;BME280_humidity;BME280_pressure;Samples;Min_cycle;Max_cycle;Signal;HPM_P1;HPM_P2
2024/02/22 00:00:00;;;;;;;1.53;1.43;;;9.50;99.90;;;;;;4994909;28;20234;-59
2024/02/22 00:02:32;;;;;;;1.43;1.20;;;9.70;99.90;;;;;;4994909;28;20211;-59
2024/02/22 00:05:00;;;;;;;2.00;1.13;;;9.80;99.90;;;;;;4992313;28;20983;-59
2024/02/22 00:07:28;;;;;;;1.50;1.40;;;9.80;99.90;;;;;;4994932;28;20233;-59
2024/02/22 00:09:57;;;;;;;2.23;2.10;;;9.70;99.90;;;;;;5009004;28;20195;-59
2024/02/22 00:12:24;;;;;;;2.33;1.47;;;9.70;99.90;;;;;;5013794;28;20252;-58
2024/02/22 00:14:51;;;;;;;1.70;1.60;;;9.80;99.90;;;;;;4999581;28;20237;-58
2024/02/22 00:17:18;;;;;;;1.20;1.20;;;9.90;99.90;;;;;;4993444;28;20225;-58
2024/02/22 00:19:45;;;;;;;1.93;1.83;;;9.70;99.90;;;;;;4993484;28;20281;-59
2024/02/22 00:22:11;;;;;;;2.33;1.60;;;9.80;99.90;;;;;;4977375;28;20688;-58
2024/02/22 00:24:40;;;;;;;1.87;1.73;;;9.80;99.90;;;;;;5013046;28;20724;-58
2024/02/22 00:27:07;;;;;;;2.10;1.53;;;9.70;99.90;;;;;;5013835;28;20213;-59
2024/02/22 00:29:34;;;;;;;2.23;1.97;;;9.60;99.90;;;;;;5002940;28;20210;-59
2024/02/22 00:32:01;;;;;;;1.57;1.47;;;9.50;99.90;;;;;;4994601;28;20262;-58
2024/02/22 00:34:27;;;;;;;1.83;1.70;;;9.50;99.90;;;;;;4993280;28;20222;-59
2024/02/22 00:36:54;;;;;;;1.77;1.67;;;9.40;99.90;;;;;;4994474;28;20203;-59
2024/02/22 00:39:21;;;;;;;1.73;1.50;;;9.50;99.90;;;;;;5001500;28;20217;-59
2024/02/22 00:41:50;;;;;;;2.73;2.33;;;9.50;99.90;;;;;;5015259;28;20201;-59
2024/02/22 00:44:17;;;;;;;1.93;1.77;;;9.40;99.90;;;;;;4993561;28;20230;-59
2024/02/22 00:46:44;;;;;;;2.20;1.30;;;9.40;99.90;;;;;;4994012;28;20210;-59
2024/02/22 00:49:10;;;;;;;1.80;1.30;;;9.40;99.90;;;;;;4994222;28;20217;-59
2024/02/22 00:51:38;;;;;;;1.80;1.70;;;9.40;99.90;;;;;;4992242;28;20196;-58
2024/02/22 00:54:05;;;;;;;1.83;1.73;;;9.40;99.90;;;;;;4992938;28;20257;-59
2024/02/22 00:56:32;;;;;;;2.17;1.80;;;9.40;99.90;;;;;;4991041;28;20252;-59
2024/02/22 00:59:00;;;;;;;1.30;1.20;;;9.40;99.90;;;;;;4993051;28;20231;-59
2024/02/22 01:01:27;;;;;;;1.93;1.50;;;9.40;99.90;;;;;;4996181;28;20205;-59
2024/02/22 01:03:54;;;;;;;1.17;1.07;;;9.40;99.90;;;;;;4992815;28;20264;-59
2024/02/22 01:06:21;;;;;;;2.23;1.60;;;9.50;99.90;;;;;;4993487;28;20641;-59
2024/02/22 01:08:47;;;;;;;1.03;0.80;;;9.60;99.90;;;;;;4992068;28;20259;-58
2024/02/22 01:11:15;;;;;;;1.83;0.73;;;9.80;99.90;;;;;;4994037;28;20264;-59
2024/02/22 01:13:42;;;;;;;0.80;0.80;;;10.10;99.90;;;;;;4992283;28;20268;-58
2024/02/22 01:16:10;;;;;;;2.33;1.07;;;10.30;99.90;;;;;;4992553;28;20811;-59
2024/02/22 01:18:37;;;;;;;3.17;0.70;;;10.40;99.90;;;;;;4999506;28;20199;-59
2024/02/22 01:21:04;;;;;;;1.80;0.80;;;10.50;99.90;;;;;;4993944;28;20218;-58
2024/02/22 01:23:31;;;;;;;0.93;0.80;;;10.70;99.90;;;;;;4993366;28;20265;-59
2024/02/22 01:25:58;;;;;;;1.23;0.93;;;10.80;99.90;;;;;;4994015;28;20250;-59
2024/02/22 01:28:25;;;;;;;0.90;0.90;;;10.80;99.90;;;;;;4993964;28;20206;-58
2024/02/22 01:30:52;;;;;;;1.70;1.10;;;10.70;99.90;;;;;;4993675;28;20212;-59
2024/02/22 01:33:21;;;;;;;3.20;1.37;;;10.70;99.90;;;;;;4993796;28;20208;-58
2024/02/22 01:35:48;;;;;;;0.77;0.73;;;10.70;99.90;;;;;;4993031;28;20272;-59
2024/02/22 01:38:15;;;;;;;1.83;1.00;;;10.70;99.90;;;;;;4993851;28;20650;-58
2024/02/22 01:40:42;;;;;;;1.20;1.03;;;10.60;99.90;;;;;;4993583;28;20227;-59
2024/02/22 01:43:09;;;;;;;1.83;1.70;;;10.60;99.90;;;;;;4993797;28;20328;-59
2024/02/22 01:45:37;;;;;;;3.17;0.87;;;10.70;99.90;;;;;;4992677;28;20231;-59
2024/02/22 01:48:05;;;;;;;0.93;0.93;;;10.70;99.90;;;;;;5001711;28;20197;-58
2024/02/22 01:50:33;;;;;;;2.30;1.67;;;10.70;99.90;;;;;;4999880;28;20602;-59
2024/02/22 01:53:01;;;;;;;1.23;1.20;;;10.60;99.90;;;;;;4993770;28;20284;-59
2024/02/22 01:55:29;;;;;;;1.17;1.03;;;10.70;99.90;;;;;;4995212;28;20248;-59
2024/02/22 01:57:56;;;;;;;1.47;0.90;;;10.80;99.90;;;;;;4994263;28;20208;-59
2024/02/22 02:00:23;;;;;;;1.10;1.10;;;11.00;99.90;;;;;;4993515;28;20219;-59
2024/02/22 02:02:50;;;;;;;1.50;1.40;;;11.00;99.90;;;;;;4991001;28;20678;-58
2024/02/22 02:05:18;;;;;;;1.40;1.20;;;10.90;99.90;;;;;;4993486;28;20222;-59
2024/02/22 02:07:46;;;;;;;1.40;1.30;;;10.80;99.90;;;;;;4990915;28;20234;-59
2024/02/22 02:10:13;;;;;;;1.63;1.20;;;10.80;99.90;;;;;;4993248;28;20733;-59
2024/02/22 02:12:40;;;;;;;2.63;1.33;;;10.70;99.90;;;;;;4992270;28;20338;-59
2024/02/22 02:15:08;;;;;;;1.70;1.23;;;10.70;99.90;;;;;;4995262;28;20250;-59
2024/02/22 02:17:35;;;;;;;2.23;1.40;;;10.70;99.90;;;;;;4993270;28;20204;-59
2024/02/22 02:20:05;;;;;;;1.50;1.30;;;10.60;99.90;;;;;;4981742;28;20224;-59
2024/02/22 02:22:59;;;;;;;1.20;1.10;;;10.70;99.90;;;;;;4987539;28;20207;-59
2024/02/22 02:25:30;;;;;;;0.90;0.90;;;10.70;99.90;;;;;;4991553;28;20258;-59
2024/02/22 02:27:57;;;;;;;2.57;1.33;;;10.60;99.90;;;;;;4993169;28;20258;-59
2024/02/22 02:30:24;;;;;;;1.20;1.20;;;10.60;99.90;;;;;;4993159;28;20202;-58
2024/02/22 02:32:51;;;;;;;1.10;1.00;;;10.60;99.90;;;;;;4992998;28;20248;-59
2024/02/22 02:35:18;;;;;;;1.30;1.10;;;10.70;99.90;;;;;;4991914;28;20223;-59
2024/02/22 02:37:45;;;;;;;1.93;1.00;;;10.80;99.90;;;;;;4995593;28;20202;-59
2024/02/22 02:40:13;;;;;;;1.43;1.30;;;10.80;99.90;;;;;;5002703;28;20651;-59
2024/02/22 02:42:41;;;;;;;2.30;1.00;;;10.90;99.90;;;;;;5001337;28;20268;-59
2024/02/22 02:45:09;;;;;;;1.37;1.27;;;10.90;99.90;;;;;;4991669;28;20245;-59
2024/02/22 02:47:36;;;;;;;2.10;1.40;;;10.90;99.90;;;;;;4992724;28;20206;-58
2024/02/22 02:50:06;;;;;;;1.50;1.40;;;10.90;99.90;;;;;;4992583;28;20250;-58
2024/02/22 02:52:33;;;;;;;1.53;1.30;;;10.90;99.90;;;;;;4992557;28;20253;-58
2024/02/22 02:55:00;;;;;;;1.73;1.43;;;10.90;99.90;;;;;;5006421;28;20791;-58
2024/02/22 02:57:30;;;;;;;2.27;1.77;;;11.00;99.90;;;;;;4998601;28;20203;-59
2024/02/22 02:59:59;;;;;;;1.67;1.43;;;11.30;99.90;;;;;;4985592;28;20703;-59
2024/02/22 03:02:30;;;;;;;1.30;1.30;;;11.00;99.90;;;;;;4992253;28;20254;-59
2024/02/22 03:04:57;;;;;;;3.87;1.40;;;11.10;99.90;;;;;;4991462;28;20760;-59
2024/02/22 03:07:24;;;;;;;3.30;1.40;;;11.10;99.90;;;;;;4992262;28;20253;-59
2024/02/22 03:09:51;;;;;;;0.87;0.87;;;11.20;99.90;;;;;;4992537;28;20207;-58
2024/02/22 03:12:18;;;;;;;1.23;1.13;;;11.10;99.90;;;;;;4992252;28;20204;-58
2024/02/22 03:14:45;;;;;;;1.93;1.63;;;11.10;99.90;;;;;;4986548;28;20220;-59
2024/02/22 03:17:14;;;;;;;1.90;1.70;;;11.10;99.90;;;;;;4997224;28;20210;-58
2024/02/22 03:19:40;;;;;;;1.20;1.10;;;11.30;99.90;;;;;;5013644;28;20233;-59
2024/02/22 03:22:07;;;;;;;1.13;1.13;;;11.20;99.90;;;;;;4996536;28;20260;-59
2024/02/22 03:24:36;;;;;;;1.20;1.17;;;11.10;99.90;;;;;;4995150;28;20780;-59
2024/02/22 03:27:03;;;;;;;1.80;1.50;;;11.00;99.90;;;;;;4996950;28;20202;-59
2024/02/22 03:29:31;;;;;;;1.53;1.43;;;11.00;99.90;;;;;;4996100;28;20668;-58
2024/02/22 03:31:58;;;;;;;1.37;1.27;;;11.00;99.90;;;;;;4995920;28;20297;-58
2024/02/22 03:34:26;;;;;;;1.20;1.20;;;10.90;99.90;;;;;;4994942;28;20234;-59
2024/02/22 03:36:53;;;;;;;2.80;1.33;;;10.80;99.90;;;;;;4996191;28;20253;-59
2024/02/22 03:39:20;;;;;;;1.30;1.20;;;10.80;99.90;;;;;;4995966;28;20210;-58
2024/02/22 03:41:48;;;;;;;2.20;2.00;;;10.80;99.90;;;;;;4996058;28;20676;-59
2024/02/22 03:44:15;;;;;;;1.70;1.60;;;10.80;99.90;;;;;;4995694;28;20263;-59
2024/02/22 03:46:46;;;;;;;2.97;1.77;;;10.80;99.90;;;;;;4995718;28;20717;-59
2024/02/22 03:49:13;;;;;;;2.73;1.80;;;10.70;99.90;;;;;;4995984;28;20208;-59
2024/02/22 03:51:42;;;;;;;2.03;1.83;;;10.70;99.90;;;;;;4995634;28;20745;-59
2024/02/22 03:54:09;;;;;;;1.17;1.00;;;10.60;99.90;;;;;;4994652;28;20226;-59
2024/02/22 03:56:37;;;;;;;0.87;0.63;;;10.70;99.90;;;;;;4995566;28;20200;-58
2024/02/22 03:59:04;;;;;;;0.83;0.83;;;10.60;99.90;;;;;;4995644;28;20214;-59
2024/02/22 04:01:31;;;;;;;0.93;0.87;;;10.50;99.90;;;;;;4996323;28;20235;-58
2024/02/22 04:03:58;;;;;;;2.57;0.80;;;10.40;99.90;;;;;;4994853;28;20206;-58
2024/02/22 04:06:25;;;;;;;1.27;1.13;;;10.40;99.90;;;;;;4995517;28;20231;-59
2024/02/22 04:08:57;;;;;;;0.73;0.73;;;10.30;99.90;;;;;;4995405;28;20206;-59
2024/02/22 04:11:24;;;;;;;1.13;0.83;;;10.10;99.90;;;;;;4995576;28;20207;-58
2024/02/22 04:13:51;;;;;;;0.57;0.53;;;10.10;99.90;;;;;;4992346;28;20237;-59
2024/02/22 04:16:18;;;;;;;3.80;1.80;;;10.00;99.90;;;;;;4995561;28;20233;-58
2024/02/22 04:18:45;;;;;;;0.50;0.50;;;10.00;99.90;;;;;;4993992;28;20555;-58
2024/02/22 04:21:12;;;;;;;1.30;0.73;;;9.90;99.90;;;;;;4995167;28;20226;-58
2024/02/22 04:23:41;;;;;;;2.60;1.00;;;9.90;99.90;;;;;;4994323;28;20249;-58
2024/02/22 04:26:10;;;;;;;1.57;1.40;;;9.80;99.90;;;;;;4995771;28;20315;-58
2024/02/22 04:28:37;;;;;;;1.03;1.00;;;9.80;99.90;;;;;;4995148;28;20206;-58
2024/02/22 04:31:05;;;;;;;0.70;0.70;;;9.80;99.90;;;;;;4994928;28;20198;-58
2024/02/22 04:33:32;;;;;;;1.40;0.70;;;9.70;99.90;;;;;;4994222;28;20212;-59
2024/02/22 04:36:00;;;;;;;1.23;0.60;;;9.70;99.90;;;;;;4995827;28;20249;-58
2024/02/22 04:38:27;;;;;;;1.67;1.03;;;9.70;99.90;;;;;;4995076;28;20201;-58
2024/02/22 04:40:54;;;;;;;1.00;0.90;;;9.80;99.90;;;;;;4982501;28;20382;-58
2024/02/22 04:43:23;;;;;;;1.13;0.97;;;9.90;99.90;;;;;;4995515;28;20611;-59
2024/02/22 04:45:50;;;;;;;1.50;1.40;;;9.90;99.90;;;;;;4994721;28;20262;-59
2024/02/22 04:48:17;;;;;;;1.07;1.07;;;9.70;99.90;;;;;;4996864;28;20620;-59
2024/02/22 04:50:44;;;;;;;0.80;0.80;;;9.70;99.90;;;;;;4994794;28;20202;-59
2024/02/22 04:53:11;;;;;;;2.30;1.20;;;10.00;99.90;;;;;;4995623;28;20203;-58
2024/02/22 04:55:38;;;;;;;1.17;0.93;;;9.80;99.90;;;;;;4994053;28;20233;-59
2024/02/22 04:58:05;;;;;;;2.50;1.27;;;9.90;99.90;;;;;;4984114;28;20208;-59
2024/02/22 05:00:34;;;;;;;1.53;1.27;;;9.90;99.90;;;;;;4993879;28;20226;-58
2024/02/22 05:03:01;;;;;;;2.03;0.90;;;9.80;99.90;;;;;;4993108;28;20215;-59
2024/02/22 05:05:28;;;;;;;2.10;1.03;;;9.70;99.90;;;;;;4994356;28;20228;-59
2024/02/22 05:07:56;;;;;;;1.40;1.30;;;9.70;99.90;;;;;;4994133;28;20334;-58
2024/02/22 05:10:24;;;;;;;1.00;1.00;;;9.60;99.90;;;;;;4992953;28;20290;-59
2024/02/22 05:12:51;;;;;;;1.07;0.97;;;9.60;99.90;;;;;;4994616;28;20232;-59
2024/02/22 05:15:18;;;;;;;1.07;1.07;;;9.60;99.90;;;;;;4993586;28;20222;-58
2024/02/22 05:17:47;;;;;;;2.03;1.77;;;9.60;99.90;;;;;;4994274;28;20205;-59
2024/02/22 05:20:15;;;;;;;2.50;1.23;;;9.60;99.90;;;;;;4994242;28;20679;-59
2024/02/22 05:22:42;;;;;;;1.70;1.60;;;9.60;99.90;;;;;;4994007;28;20670;-59
2024/02/22 05:25:10;;;;;;;1.20;1.10;;;9.50;99.90;;;;;;4993049;28;20215;-59
2024/02/22 05:27:37;;;;;;;1.43;1.37;;;9.50;99.90;;;;;;4988316;28;20262;-58
2024/02/22 05:30:04;;;;;;;2.33;1.30;;;9.60;99.90;;;;;;4987938;28;20206;-59
2024/02/22 05:32:31;;;;;;;1.47;1.37;;;9.60;99.90;;;;;;4994035;28;20247;-59
2024/02/22 05:35:00;;;;;;;2.50;1.37;;;9.60;99.90;;;;;;4992721;28;20230;-59
2024/02/22 05:37:31;;;;;;;0.97;0.67;;;9.70;99.90;;;;;;4997187;28;20694;-59
2024/02/22 05:39:58;;;;;;;1.50;1.23;;;9.70;99.90;;;;;;4993053;28;20200;-63
2024/02/22 05:42:29;;;;;;;1.37;1.23;;;9.80;99.90;;;;;;4993840;28;20249;-59
2024/02/22 05:44:56;;;;;;;2.63;1.13;;;9.80;99.90;;;;;;4990076;28;20316;-59
2024/02/22 05:47:24;;;;;;;1.57;1.47;;;9.80;99.90;;;;;;4993587;28;20202;-58
2024/02/22 05:49:51;;;;;;;2.03;1.93;;;9.70;99.90;;;;;;4993336;28;20241;-59
2024/02/22 05:52:19;;;;;;;2.17;2.00;;;9.70;99.90;;;;;;4993542;28;20249;-59
2024/02/22 05:54:46;;;;;;;2.53;1.10;;;9.80;99.90;;;;;;4996532;28;20221;-59
2024/02/22 05:57:13;;;;;;;0.97;0.97;;;9.70;99.90;;;;;;4989924;28;20214;-59
2024/02/22 05:59:40;;;;;;;3.80;1.40;;;9.70;99.90;;;;;;4993587;28;20250;-59
2024/02/22 06:02:07;;;;;;;3.10;1.40;;;9.70;99.90;;;;;;4993200;28;20220;-59
2024/02/22 06:04:34;;;;;;;2.63;1.33;;;9.60;99.90;;;;;;4992446;28;20229;-58
2024/02/22 06:07:01;;;;;;;1.50;1.40;;;9.70;99.90;;;;;;4993477;28;20256;-59
2024/02/22 06:09:30;;;;;;;2.10;1.33;;;9.50;99.90;;;;;;4993470;28;20207;-60
2024/02/22 06:11:57;;;;;;;1.90;1.80;;;9.40;99.90;;;;;;4993504;28;20252;-59
2024/02/22 06:14:24;;;;;;;4.13;2.20;;;9.40;99.90;;;;;;4994095;28;20775;-59
2024/02/22 06:16:51;;;;;;;1.93;1.80;;;9.50;99.90;;;;;;4991233;28;20212;-59
2024/02/22 06:19:18;;;;;;;1.70;1.60;;;9.40;99.90;;;;;;4989430;28;20229;-58
2024/02/22 06:21:45;;;;;;;4.20;2.10;;;9.40;99.90;;;;;;4999682;28;20222;-59
2024/02/22 06:24:11;;;;;;;5.37;1.70;;;9.50;99.90;;;;;;5001488;28;20225;-59
2024/02/22 06:26:40;;;;;;;1.30;1.20;;;9.50;99.90;;;;;;4991712;28;20200;-59
2024/02/22 06:29:07;;;;;;;1.90;1.80;;;9.30;99.90;;;;;;5012795;28;20204;-59
2024/02/22 06:31:34;;;;;;;3.43;1.60;;;9.40;99.90;;;;;;4992404;28;20206;-59
2024/02/22 06:34:00;;;;;;;1.80;1.70;;;9.40;99.90;;;;;;4992583;28;20562;-59
2024/02/22 06:36:28;;;;;;;3.87;2.17;;;9.40;99.90;;;;;;4992761;28;20206;-59
2024/02/22 06:38:56;;;;;;;4.37;2.07;;;9.30;99.90;;;;;;4990648;28;20289;-59
2024/02/22 06:41:23;;;;;;;2.00;1.73;;;9.20;99.90;;;;;;4992805;28;20260;-59
2024/02/22 06:43:54;;;;;;;2.00;1.90;;;9.20;99.90;;;;;;4989903;28;20298;-59
2024/02/22 06:46:24;;;;;;;4.03;1.83;;;9.20;99.90;;;;;;4992910;28;20614;-59
2024/02/22 06:48:51;;;;;;;5.73;2.70;;;9.10;99.90;;;;;;4992755;28;20229;-59
2024/02/22 06:51:18;;;;;;;3.03;2.60;;;9.10;99.90;;;;;;4999803;28;20198;-59
2024/02/22 06:53:44;;;;;;;4.03;1.93;;;9.10;99.90;;;;;;5010266;28;20204;-59
2024/02/22 06:56:11;;;;;;;2.43;1.43;;;9.00;99.90;;;;;;5012277;28;20260;-59
2024/02/22 06:58:38;;;;;;;2.67;2.33;;;9.00;99.90;;;;;;5009814;28;20501;-61
2024/02/22 07:01:07;;;;;;;2.53;1.97;;;8.90;99.90;;;;;;4998672;28;20279;-64
2024/02/22 07:03:34;;;;;;;3.63;1.77;;;8.90;99.90;;;;;;4986576;28;20217;-64
2024/02/22 07:06:01;;;;;;;2.00;1.90;;;9.00;99.90;;;;;;4976449;28;20226;-63
2024/02/22 07:08:29;;;;;;;2.27;2.17;;;9.00;99.90;;;;;;4985334;28;20753;-66
2024/02/22 07:10:56;;;;;;;3.97;2.80;;;9.00;99.90;;;;;;4992112;28;20741;-64
2024/02/22 07:13:23;;;;;;;2.70;2.50;;;9.00;99.90;;;;;;4990543;28;20202;-63
2024/02/22 07:15:50;;;;;;;3.97;3.53;;;9.00;99.90;;;;;;4989865;28;20602;-61
2024/02/22 07:18:18;;;;;;;11.60;6.97;;;8.90;99.90;;;;;;4991562;28;20205;-60
2024/02/22 07:20:45;;;;;;;14.50;6.97;;;8.90;99.90;;;;;;4980147;28;20224;-60
2024/02/22 07:23:12;;;;;;;7.50;5.47;;;8.90;99.90;;;;;;4995002;28;20671;-62
2024/02/22 07:25:39;;;;;;;10.63;5.57;;;8.80;99.90;;;;;;4990773;28;20744;-61
2024/02/22 07:28:10;;;;;;;6.27;4.33;;;8.90;99.90;;;;;;4991244;28;20210;-61
2024/02/22 07:30:37;;;;;;;5.87;4.03;;;9.00;99.90;;;;;;4990032;28;20208;-61
2024/02/22 07:33:05;;;;;;;5.57;3.90;;;9.10;99.90;;;;;;4992218;28;20207;-62
2024/02/22 07:35:33;;;;;;;3.47;2.63;;;9.00;99.90;;;;;;4987084;28;20245;-62
2024/02/22 07:37:59;;;;;;;2.67;2.33;;;8.90;99.90;;;;;;4991920;28;20196;-68
2024/02/22 07:40:26;;;;;;;3.60;2.63;;;9.00;99.90;;;;;;4991622;28;20206;-62
2024/02/22 07:42:53;;;;;;;2.23;2.13;;;9.00;99.90;;;;;;5006017;28;20724;-64
2024/02/22 07:45:22;;;;;;;3.43;2.80;;;8.90;99.90;;;;;;4989370;28;20237;-64
2024/02/22 07:47:50;;;;;;;4.67;3.40;;;8.90;99.90;;;;;;4991806;28;20212;-64
2024/02/22 07:50:17;;;;;;;7.17;4.70;;;8.90;99.90;;;;;;4997194;28;20235;-65
2024/02/22 07:52:45;;;;;;;6.60;5.13;;;8.40;99.90;;;;;;5010517;28;20205;-64
2024/02/22 07:55:13;;;;;;;4.40;3.90;;;8.90;99.90;;;;;;5009941;28;20221;-61
2024/02/22 07:57:40;;;;;;;4.37;3.97;;;8.80;99.90;;;;;;5010508;28;20201;-61
2024/02/22 08:00:08;;;;;;;5.63;5.03;;;8.80;99.90;;;;;;5009820;28;20204;-61
2024/02/22 08:02:36;;;;;;;4.40;4.00;;;8.90;99.90;;;;;;5003811;28;20257;-61
2024/02/22 08:05:03;;;;;;;4.63;4.23;;;8.80;99.90;;;;;;4988706;28;20230;-61
2024/02/22 08:07:33;;;;;;;4.53;4.03;;;8.80;99.90;;;;;;4993765;28;20817;-61
2024/02/22 08:10:03;;;;;;;3.50;3.20;;;8.80;99.90;;;;;;4994402;28;20555;-61
2024/02/22 08:12:31;;;;;;;4.63;3.63;;;8.90;99.90;;;;;;4996776;28;20262;-61
2024/02/22 08:14:58;;;;;;;3.83;3.17;;;8.90;99.90;;;;;;4994797;28;20279;-61
2024/02/22 08:17:25;;;;;;;5.33;3.20;;;9.00;99.90;;;;;;5014037;28;20681;-61
2024/02/22 08:19:52;;;;;;;6.53;4.50;;;9.00;99.90;;;;;;5014997;28;20210;-62
2024/02/22 08:22:19;;;;;;;4.40;4.00;;;9.20;99.90;;;;;;4994199;28;20226;-61
2024/02/22 08:24:46;;;;;;;3.60;3.30;;;9.10;99.90;;;;;;4992541;28;20721;-61
2024/02/22 08:27:15;;;;;;;4.97;3.93;;;9.10;99.90;;;;;;4995603;28;20265;-62
2024/02/22 08:29:47;;;;;;;8.40;4.83;;;9.20;99.90;;;;;;5014995;23;20238;-63
2024/02/22 08:32:14;;;;;;;5.90;5.30;;;9.20;99.90;;;;;;4994976;28;20284;-63
2024/02/22 08:34:41;;;;;;;4.70;3.50;;;9.30;99.90;;;;;;4993720;28;20206;-62
2024/02/22 08:37:08;;;;;;;4.03;3.67;;;9.50;99.90;;;;;;4994500;28;20292;-62
2024/02/22 08:39:35;;;;;;;3.70;3.40;;;9.70;99.90;;;;;;4986157;28;20717;-63
2024/02/22 08:42:03;;;;;;;5.70;3.50;;;10.00;99.90;;;;;;4965195;28;20611;-63
2024/02/22 08:44:32;;;;;;;4.60;3.17;;;10.20;99.90;;;;;;4954895;29;20207;-63
2024/02/22 08:47:03;;;;;;;3.50;3.20;;;10.30;99.90;;;;;;4955428;29;20208;-63
2024/02/22 08:49:32;;;;;;;3.40;3.10;;;10.40;99.90;;;;;;4970049;28;20223;-62
2024/02/22 08:52:01;;;;;;;3.00;2.37;;;10.40;99.90;;;;;;4994045;28;20203;-63
2024/02/22 08:54:28;;;;;;;3.53;3.23;;;10.60;99.90;;;;;;4993514;28;20214;-62
2024/02/22 08:56:55;;;;;;;2.77;2.57;;;10.60;99.90;;;;;;4994195;28;20268;-63
2024/02/22 08:59:23;;;;;;;3.23;3.03;;;10.60;99.90;;;;;;4971015;28;20583;-63
2024/02/22 09:01:53;;;;;;;4.53;3.13;;;10.50;99.90;;;;;;4955138;29;20287;-62
2024/02/22 09:04:20;;;;;;;3.23;2.27;;;10.60;99.90;;;;;;4964830;28;20306;-63
2024/02/22 09:06:47;;;;;;;4.50;2.53;;;10.60;99.90;;;;;;4961498;28;20207;-62
2024/02/22 09:09:14;;;;;;;2.53;2.33;;;10.60;99.90;;;;;;4955128;28;20262;-63
2024/02/22 09:11:41;;;;;;;3.07;2.10;;;10.70;99.90;;;;;;4955244;29;20268;-63
2024/02/22 09:14:08;;;;;;;2.10;2.00;;;10.70;99.90;;;;;;4954326;28;20691;-62
2024/02/22 09:16:34;;;;;;;1.93;1.73;;;10.80;99.90;;;;;;4954773;28;20211;-62
2024/02/22 09:19:03;;;;;;;2.30;1.40;;;10.90;99.90;;;;;;4955368;28;20268;-62
2024/02/22 09:21:30;;;;;;;1.70;1.50;;;11.00;99.90;;;;;;4983223;28;20311;-63
2024/02/22 09:23:57;;;;;;;2.30;1.53;;;11.00;99.90;;;;;;4973233;28;20219;-62
2024/02/22 09:26:24;;;;;;;2.03;1.60;;;11.10;99.90;;;;;;4957904;28;20209;-62
2024/02/22 09:28:51;;;;;;;4.57;1.60;;;11.10;99.90;;;;;;4954709;28;20269;-62
2024/02/22 09:31:18;;;;;;;2.10;1.53;;;11.10;99.90;;;;;;4954846;29;20534;-63
2024/02/22 09:33:46;;;;;;;3.67;1.93;;;11.10;99.90;;;;;;4954063;29;20208;-62
2024/02/22 09:36:16;;;;;;;2.00;1.87;;;11.10;99.90;;;;;;4986289;28;20232;-62
2024/02/22 09:38:43;;;;;;;2.70;2.47;;;11.20;99.90;;;;;;4993331;28;20594;-63
2024/02/22 09:41:11;;;;;;;2.33;2.23;;;11.20;99.90;;;;;;4993213;28;20218;-63
2024/02/22 09:43:38;;;;;;;2.50;2.40;;;11.20;99.90;;;;;;4980725;28;20200;-62
2024/02/22 09:46:05;;;;;;;1.90;1.80;;;11.20;99.90;;;;;;4960582;28;20215;-62
2024/02/22 09:48:32;;;;;;;4.40;2.60;;;11.20;99.90;;;;;;4954540;28;20272;-62
2024/02/22 09:51:00;;;;;;;1.70;1.60;;;11.20;99.90;;;;;;4961648;28;20196;-63
2024/02/22 09:53:29;;;;;;;2.03;1.93;;;11.10;99.90;;;;;;4985076;28;20201;-62
2024/02/22 09:55:56;;;;;;;2.80;2.57;;;11.20;99.90;;;;;;4972114;28;20330;-64
2024/02/22 09:58:24;;;;;;;2.80;2.10;;;11.20;99.90;;;;;;4968042;28;20258;-62
2024/02/22 10:00:51;;;;;;;2.70;2.53;;;11.30;99.90;;;;;;4954451;29;20208;-62
2024/02/22 10:03:28;;;;;;;3.90;2.50;;;11.20;99.90;;;;;;4954142;29;20264;-63
2024/02/22 10:05:55;;;;;;;2.63;1.53;;;11.20;99.90;;;;;;4967178;28;20208;-62
2024/02/22 10:08:24;;;;;;;1.37;1.00;;;11.20;99.90;;;;;;4977620;28;20206;-62
2024/02/22 10:10:55;;;;;;;1.53;1.53;;;11.40;99.90;;;;;;4992751;28;20206;-63
2024/02/22 10:13:22;;;;;;;2.03;1.77;;;11.60;99.90;;;;;;4992731;28;20296;-62
2024/02/22 10:15:50;;;;;;;1.00;0.87;;;11.60;99.90;;;;;;4991722;28;20713;-63
2024/02/22 10:18:25;;;;;;;1.10;0.70;;;11.60;99.90;;;;;;4992621;28;20238;-63
2024/02/22 10:20:51;;;;;;;2.17;0.83;;;11.70;99.90;;;;;;4992620;28;20641;-62
2024/02/22 10:23:20;;;;;;;0.67;0.67;;;11.80;99.90;;;;;;4992378;28;20225;-62
2024/02/22 10:25:47;;;;;;;0.83;0.70;;;11.80;99.90;;;;;;4972425;28;20219;-63
2024/02/22 10:28:16;;;;;;;0.60;0.60;;;11.90;99.90;;;;;;4970764;28;20212;-62
2024/02/22 10:30:44;;;;;;;0.77;0.77;;;12.00;99.90;;;;;;4972550;28;20289;-63
2024/02/22 10:33:12;;;;;;;0.80;0.80;;;12.10;99.90;;;;;;4970698;28;20583;-62
2024/02/22 10:35:40;;;;;;;0.40;0.40;;;12.00;99.90;;;;;;4971930;28;20211;-62
2024/02/22 10:38:09;;;;;;;0.40;0.40;;;12.00;99.90;;;;;;4972832;28;20257;-63
2024/02/22 10:40:36;;;;;;;0.50;0.50;;;11.90;99.90;;;;;;4972629;28;20719;-62
2024/02/22 10:43:07;;;;;;;0.40;0.40;;;11.90;99.90;;;;;;4975098;28;20702;-62
2024/02/22 10:45:36;;;;;;;0.50;0.40;;;12.00;99.90;;;;;;4959452;28;20208;-63
2024/02/22 10:48:07;;;;;;;0.60;0.40;;;12.10;99.90;;;;;;4953230;29;20352;-63
2024/02/22 10:50:35;;;;;;;0.30;0.30;;;12.20;99.90;;;;;;4952334;28;20227;-63
2024/02/22 10:53:04;;;;;;;0.30;0.30;;;12.30;99.90;;;;;;4952734;29;20526;-63
2024/02/22 10:55:35;;;;;;;0.40;0.40;;;12.30;99.90;;;;;;4952083;29;20684;-64
2024/02/22 10:58:04;;;;;;;0.60;0.40;;;12.40;99.90;;;;;;4959953;28;20742;-64
2024/02/22 11:00:34;;;;;;;0.23;0.23;;;12.50;99.90;;;;;;4970971;28;20229;-63
2024/02/22 11:03:04;;;;;;;1.50;0.33;;;12.50;99.90;;;;;;4965520;28;20235;-63
2024/02/22 11:05:39;;;;;;;0.63;0.30;;;12.60;99.90;;;;;;4954090;28;20282;-62
2024/02/22 11:08:06;;;;;;;0.30;0.30;;;12.70;99.90;;;;;;4965299;28;20538;-63
2024/02/22 11:10:33;;;;;;;0.33;0.33;;;12.70;99.90;;;;;;4952976;28;20640;-64
2024/02/22 11:13:03;;;;;;;0.20;0.20;;;12.70;99.90;;;;;;4953056;29;20255;-64
2024/02/22 11:15:34;;;;;;;0.40;0.30;;;12.80;99.90;;;;;;4981031;28;20202;-64
2024/02/22 11:18:03;;;;;;;0.40;0.30;;;12.80;99.90;;;;;;4991765;28;20206;-64
2024/02/22 11:20:32;;;;;;;0.30;0.30;;;12.90;99.90;;;;;;4991525;28;20733;-64
2024/02/22 11:22:59;;;;;;;0.27;0.27;;;12.90;99.90;;;;;;4991265;28;20237;-64
2024/02/22 11:25:26;;;;;;;1.53;0.40;;;12.80;99.90;;;;;;4972700;28;20203;-65
2024/02/22 11:28:00;;;;;;;0.30;0.30;;;12.80;99.90;;;;;;4972279;28;20267;-65
2024/02/22 11:30:27;;;;;;;0.47;0.40;;;12.80;99.90;;;;;;4973357;28;20306;-65
2024/02/22 11:32:55;;;;;;;0.30;0.30;;;12.80;99.90;;;;;;4991542;28;20199;-65
2024/02/22 11:35:24;;;;;;;0.50;0.40;;;12.80;99.90;;;;;;4990632;28;20202;-64
2024/02/22 11:38:00;;;;;;;3.07;0.47;;;12.80;99.90;;;;;;4991162;28;20242;-65
2024/02/22 11:40:30;;;;;;;1.47;1.30;;;12.70;99.90;;;;;;4991186;28;20311;-65
2024/02/22 11:42:58;;;;;;;0.90;0.90;;;12.70;99.90;;;;;;4991490;28;20223;-64
2024/02/22 11:45:25;;;;;;;2.63;0.30;;;12.70;99.90;;;;;;4975022;28;20204;-64
2024/02/22 11:47:52;;;;;;;0.50;0.50;;;12.70;99.90;;;;;;4982758;28;20198;-64
2024/02/22 11:50:21;;;;;;;0.30;0.30;;;12.80;99.90;;;;;;4993630;28;20224;-64
2024/02/22 11:52:50;;;;;;;0.90;0.20;;;12.90;99.90;;;;;;4994956;28;20198;-64
2024/02/22 11:55:18;;;;;;;0.20;0.20;;;12.80;99.90;;;;;;4994226;28;20210;-64
2024/02/22 11:57:45;;;;;;;3.07;2.87;;;12.80;99.90;;;;;;4994973;28;20243;-64
2024/02/22 12:00:13;;;;;;;4.63;4.23;;;12.70;99.90;;;;;;4975077;28;20285;-64
2024/02/22 12:02:40;;;;;;;5.07;4.57;;;12.60;99.90;;;;;;4974492;28;20765;-65
2024/02/22 12:05:10;;;;;;;7.50;5.10;;;12.40;99.90;;;;;;4979991;28;20199;-64
2024/02/22 12:07:38;;;;;;;8.53;6.10;;;12.10;99.90;;;;;;4975607;28;20207;-64
2024/02/22 12:10:09;;;;;;;9.87;7.00;;;11.70;99.90;;;;;;4965659;28;20233;-63
2024/02/22 12:12:39;;;;;;;7.43;4.43;;;11.30;99.90;;;;;;4975468;28;20207;-63
2024/02/22 12:15:06;;;;;;;7.20;5.80;;;10.90;99.90;;;;;;4975091;28;20559;-63
2024/02/22 12:17:34;;;;;;;10.77;6.57;;;10.50;99.90;;;;;;4975777;28;20220;-63
2024/02/22 12:20:02;;;;;;;6.90;5.27;;;10.30;99.90;;;;;;4969609;28;20774;-64
2024/02/22 12:22:34;;;;;;;7.37;5.23;;;10.20;99.90;;;;;;4971591;28;20227;-62
2024/02/22 12:25:01;;;;;;;6.43;5.80;;;9.90;99.90;;;;;;4972860;28;20203;-65
2024/02/22 12:27:34;;;;;;;9.30;6.40;;;9.90;99.90;;;;;;4971941;28;20204;-62
2024/02/22 12:30:01;;;;;;;8.27;6.70;;;9.70;99.90;;;;;;4971570;28;20270;-63
2024/02/22 12:32:31;;;;;;;6.73;6.00;;;9.60;99.90;;;;;;4984167;28;20206;-62
2024/02/22 12:34:58;;;;;;;9.03;6.07;;;9.70;99.90;;;;;;4978452;28;20745;-63
2024/02/22 12:37:26;;;;;;;7.40;5.57;;;9.70;99.90;;;;;;4975414;28;20213;-62
2024/02/22 12:39:53;;;;;;;9.77;6.30;;;9.70;99.90;;;;;;4973373;28;20233;-62
2024/02/22 12:42:20;;;;;;;5.97;5.47;;;9.80;99.90;;;;;;4974988;28;20206;-62
2024/02/22 12:44:49;;;;;;;6.87;6.17;;;9.70;99.90;;;;;;4973081;28;20234;-63
2024/02/22 12:47:15;;;;;;;7.57;5.97;;;9.70;99.90;;;;;;4957177;28;20698;-62
2024/02/22 12:49:42;;;;;;;7.23;6.27;;;9.80;99.90;;;;;;4955864;28;20725;-60
2024/02/22 12:52:11;;;;;;;7.97;5.47;;;9.70;99.90;;;;;;4965562;28;20266;-61